Niklas Ziegler

Recruteur - SC Freiburg
8 Janv 2028
Samedi
Processus

Personnalité

Adaptabilité (8) Ambition (18) Controverse (1) Loyauté (2) Pression (9) Professionnalisme (6) Sportivité (8) Tempérament (1)

Profil

Style d'entraînement Démocratique
Diplôme National A
Détermination 11
Gestion des joueurs 12
Motivation 8
Discipline 8
Satisfaction professionnelle
100%
Fatigue
0%
Rôle Recruteur
Salaire 29.2K p/s
Contrat 14.03.2028

Performance

Comportement Bon
Efficacité de l'entraînement
55%
Développement des joueurs
75%
Prévention des blessures
30%
Mise en place tactique
50%

Événements récents

A recommandé une cible de transfert maintenant
A présenté un dossier au conseil maintenant
Négociation de contrat entamée maintenant
A présenté un dossier au conseil maintenant
Négociation de contrat entamée maintenant
A présenté un dossier au conseil maintenant
Négociation de contrat entamée maintenant
A présenté un dossier au conseil maintenant

Suivi en cours

150
Joueur Club Statut Capacité Confiance Observé Dernière observation Dernier vote
Mohammad Mohebi Werder Bremen Rapport prêt 128 / 122 83% 1 07.01.2028 -
Przemysław Płacheta Werder Bremen Rapport prêt 122 / 120 83% 1 01.01.2028 -
Can Uzun Eintracht Frankfurt Actif 149 / 143 40% 2 06.07.2027 -
Mfundo Vilakazi Kaizer Chiefs Actif 118 / 116 40% 3 06.07.2027 -
Matheus Gonçalves Al-Ahli Actif 131 / 126 40% 2 06.07.2027 -
Othmane Maamma Watford Actif 128 / 133 40% 4 28.06.2027 -
Reiss Nelson VfL Wolfsburg Actif 144 / 142 79% 1 14.06.2027 -
Leny Yoro Monaco Actif 147 / 144 40% 8 29.05.2027 -
Leonardo Mendicino Bari Actif 114 / 119 40% 1 29.05.2027 -
Jorrel Hato Chelsea Actif 148 / 158 40% 10 28.05.2027 -
Yussif Saidu Zaragoza Actif 125 / 128 40% 4 28.05.2027 -
Milad Jahanbakhsh Rah Ahan Actif 98 / 105 40% 1 28.05.2027 -
Sam Curtis Swindon Town Actif 104 / 108 40% 4 26.05.2027 -
Izan Merino Málaga Actif 120 / 126 40% 2 26.05.2027 -
Tiago Freitas Benfica Actif 108 / 114 40% 2 25.05.2027 -
Taylan Bulut Basaksehir Actif 123 / 117 40% 11 23.05.2027 -
Christos Mouzakitis Hull City Actif 128 / 134 40% 4 23.05.2027 -
Ollie Scarles Chelsea Actif 132 / 132 40% 3 22.05.2027 -
Maeson King Blackpool Actif 105 / 108 40% 2 22.05.2027 -
Riquelme Thompson-Jones Shrewsbury Town Actif 104 / 111 40% 6 20.05.2027 -
João Simões Sporting CP Actif 132 / 134 40% 3 20.05.2027 -
Samuele di Benedetto Zurich Actif 112 / 114 40% 5 19.05.2027 -
Finn Jeltsch VfB Stuttgart Actif 137 / 137 40% 7 18.05.2027 -
Givairo Read Feyenoord Actif 144 / 149 40% 13 18.05.2027 -
Kees Smit AZ Actif 141 / 143 40% 2 16.05.2027 -
Alpha Touré FC Metz Actif 115 / 120 40% 4 16.05.2027 -
Nikolaus Wurmbrand Heidenheim Actif 126 / 123 40% 3 14.05.2027 -
Sidiki Chérif Coventry City Actif 124 / 135 40% 1 14.05.2027 -
Sindre Walle Egeli Nottingham Forest Actif 133 / 132 40% 1 14.05.2027 -
Elijah Dijkstra AZ Actif 130 / 125 40% 6 13.05.2027 -
Warren Zaïre-Emery Paris Saint-Germain Actif 155 / 166 40% 3 11.05.2027 -
Héctor Fort Real Sociedad Actif 137 / 137 40% 11 11.05.2027 -
Gorka Gorosabel Real Sociedad Actif 111 / 113 40% 2 11.05.2027 -
Wiebe Kooistra Cambuur Actif 103 / 103 40% 2 11.05.2027 -
Noah Nartey Olympique Lyonnais Actif 131 / 136 40% 1 11.05.2027 -
Caleb Yirenkyi Coventry City Actif 134 / 140 40% 3 07.05.2027 -
Sascha Britschgi Catanzaro Actif 117 / 121 40% 2 07.05.2027 -
Jofre Torrents Ajax Actif 122 / 132 40% 1 07.05.2027 -
José Pachuca Puebla Actif 107 / 109 40% 4 06.05.2027 -
Lucas Bergvall Tottenham Actif 150 / 145 40% 1 06.05.2027 -
Yusi Alavés Actif 132 / 136 40% 6 03.05.2027 -
Oscar Schwartau Norwich City Actif 123 / 127 40% 2 03.05.2027 -
David Mella Deportivo La Coruña Actif 130 / 130 40% 2 03.05.2027 -
Louis Leroux FC Nantes Actif 126 / 130 40% 3 01.05.2027 -
Thomas Alderweireld Dijon Actif 130 / 136 40% 5 27.04.2027 -
Ayoub Oufkir AZ Actif 133 / 137 40% 2 23.04.2027 -
Jesús Rodríguez Napoli Actif 142 / 146 40% 1 23.04.2027 -
Karim Coulibaly RC Strasbourg Actif 117 / 131 40% 3 20.04.2027 -
Paul Wanner PSV Actif 139 / 135 40% 3 19.04.2027 -
Illaijh de Ruijter ADO Den Haag Actif 116 / 120 40% 2 19.04.2027 -
Thomas Jørgensen Toulouse FC Actif 125 / 130 40% 1 19.04.2027 -
Pau Navarro Villarreal Actif 144 / 147 40% 2 17.04.2027 -
Toni Tamarit Alverca Actif 111 / 124 40% 2 11.04.2027 -
Chema Andrés Liverpool Actif 132 / 143 40% 1 10.04.2027 -
Lovro Zvonarek Estrela da Amadora Actif 123 / 133 40% 1 09.04.2027 -
Jan Virgili Club Brugge Actif 129 / 133 40% 1 09.04.2027 -
Ismaël Baouf Cambuur Actif 116 / 120 40% 1 06.04.2027 -
Bazoumana Touré Newcastle United Actif 141 / 147 40% 1 05.04.2027 -
Eivind Helland Bologna Actif 133 / 137 40% 1 02.04.2027 -
Nestory Irankunda Watford Actif 115 / 130 40% 2 31.03.2027 -
Oumar Camara Vitoria Guimaraes Actif 123 / 126 40% 2 31.03.2027 -
Kirill Glebov CSKA Moscow Actif 131 / 128 40% 1 29.03.2027 -
Mathys Tel Stade Rennais Actif 141 / 145 40% 3 25.03.2027 -
Hirving Salcedo Veracruz Actif 130 / 131 40% 1 25.03.2027 -
Mamadou Diakhon Club Brugge Actif 119 / 131 40% 1 24.03.2027 -
Nacer Mignolet KV Oostende Actif 128 / 140 40% 3 22.03.2027 -
Rodrigo Ribeiro Werder Bremen Actif 126 / 121 40% 1 22.03.2027 -
Jack Hinshelwood Brighton Actif 140 / 148 40% 7 21.03.2027 -
Lander Astiazarán Real Sociedad Actif 108 / 111 40% 1 19.03.2027 -
Santiago Fernández Eibar Actif 123 / 129 40% 2 11.03.2027 -
Chemsdine Talbi Sunderland Actif 146 / 145 40% 2 09.03.2027 -
Antoni Milambo Brentford Actif 142 / 146 40% 2 09.03.2027 -
Dehmaine Tabibou FC Nantes Actif 127 / 131 40% 1 03.03.2027 -
Saman Taremi Padideh Actif 98 / 107 40% 1 02.03.2027 -
Roger Fernandes Al-Ittihad Actif 134 / 146 40% 1 28.02.2027 -
Tim Drexler Red Bull Salzburg Actif 117 / 125 40% 8 27.02.2027 -
Ethan Mbappé LOSC Lille Actif 129 / 138 40% 2 22.02.2027 -
Nico O'Reilly Manchester City Actif 152 / 159 40% 2 17.02.2027 -
Malick Fofana Sunderland Actif 147 / 150 40% 1 17.02.2027 -
Luca Marino Swansea City Actif 107 / 113 40% 2 15.02.2027 -
Joaquin Seys Club Brugge Actif 127 / 129 40% 3 09.02.2027 -
Ibrahim Coulibaly Clermont Foot Actif 108 / 113 40% 1 09.02.2027 -
Max Finkgräfe RB Leipzig Actif 127 / 135 79% 1 18.01.2027 -
Uchenna Ogundu FC Augsburg Actif 122 / 128 79% 1 01.01.2027 -
Seedy Jatta Sturm Graz Actif 123 / 117 40% 2 26.12.2026 -
Isaac Romero Sevilla Actif 147 / 135 40% 1 26.12.2026 -
Rafael Leão Galatasaray Actif 163 / 154 40% 1 26.12.2026 -
Karim Adeyemi Barcelona Actif 158 / 157 40% 4 23.12.2026 -
Fábio Silva Borussia Dortmund Actif 138 / 138 40% 3 23.12.2026 -
Didier Robert FC Augsburg Actif 151 / 143 40% 5 22.12.2026 -
Tim Lemperle TSG Hoffenheim Actif 136 / 147 40% 1 22.12.2026 -
Pau Víctor Estrela da Amadora Actif 137 / 144 40% 2 21.12.2026 -
Sinan Karweina Luzern Actif 119 / 110 40% 1 21.12.2026 -
Julian von Moos Grasshopper Actif 120 / 112 40% 5 19.12.2026 -
Marlon Mustapha Altach Actif 112 / 107 40% 2 19.12.2026 -
Ez Abde Betis Actif 151 / 151 40% 1 18.12.2026 -
Karim Konaté Red Bull Salzburg Actif 131 / 134 40% 2 17.12.2026 -
Umeh Emmanuel Fatih Karagumruk Actif 112 / 123 40% 1 17.12.2026 -
Adriano Bertaccini Anderlecht Actif 131 / 118 40% 1 15.12.2026 -
Lamine Cissé Peterborough United Actif 118 / 119 40% 1 15.12.2026 -
Dango Ouattara Brentford Actif 150 / 141 40% 1 14.12.2026 -
Rodrigo Muniz Fulham Actif 137 / 134 40% 1 12.12.2026 -
Martin Wober Mattersburg Actif 94 / 100 40% 1 11.12.2026 -
Kyriani Sabbe Club Brugge Actif 123 / 119 40% 1 07.12.2026 -
Kevin Schade Brentford Actif 147 / 149 40% 4 06.12.2026 -
Roberto Fernández Braga Actif 143 / 141 40% 1 06.12.2026 -
Igor Jesus Nottingham Forest Actif 142 / 147 40% 1 04.12.2026 -
Philippe Keny Zurich Actif 123 / 124 40% 1 28.11.2026 -
Matteo di Giusto Luzern Actif 123 / 130 40% 1 26.11.2026 -
Andrés Martín Racing Santander Actif 140 / 138 40% 1 24.11.2026 -
Juan-José Perea Zurich Actif 122 / 121 40% 1 24.11.2026 -
Liam Delap Nottingham Forest Actif 141 / 144 40% 1 22.11.2026 -
Jonas Harder Basel Actif 105 / 121 40% 2 19.11.2026 -
Žan Celar Basel Actif 109 / 112 40% 1 19.11.2026 -
Max Scholze Estrela da Amadora Actif 111 / 111 40% 2 05.11.2026 -
Philipp Alaba Austria Wien Actif 128 / 127 40% 2 04.11.2026 -
Mattia Zanotti Lugano Actif 128 / 125 40% 5 02.11.2026 -
Malik Tillman Bayer Leverkusen Actif 150 / 154 40% 1 02.11.2026 -
Jamal Musiala Bayern Munich Actif 163 / 167 40% 4 28.10.2026 -
Jordan Beyer Burnley Actif 136 / 129 40% 2 28.10.2026 -
Anton Stach Leeds United Actif 151 / 151 40% 2 28.10.2026 -
Noah Sadiki Sunderland Actif 145 / 149 40% 1 28.10.2026 -
Furkan Demir Rapid Wien Actif 121 / 124 40% 1 28.10.2026 -
Enzo Loiodice KAA Gent Actif 126 / 134 40% 4 27.10.2026 -
Diego Lainez Tigres Actif 137 / 118 40% 2 27.10.2026 -
Rico Lewis Manchester City Actif 145 / 155 40% 1 25.10.2026 -
Corsin Konietzke St. Gallen Actif 108 / 112 40% 1 22.10.2026 -
Álex Baena Atlético Madrid Actif 156 / 154 40% 1 19.10.2026 -
Yeremay Deportivo La Coruña Actif 141 / 143 40% 1 19.10.2026 Plus d'infos
Matt O'Riley Brighton Actif 148 / 151 40% 1 16.10.2026 -
Jobe Bellingham Borussia Dortmund Actif 136 / 142 40% 1 13.10.2026 -
Alvyn Sanches Young Boys Actif 128 / 132 40% 1 12.10.2026 -
Angelo Stiller VfB Stuttgart Actif 152 / 154 40% 2 09.10.2026 -
Mikkel Damsgaard Brentford Actif 149 / 147 40% 1 09.10.2026 -
Boubacar Kamara Aston Villa Actif 166 / 166 40% 1 08.10.2026 -
Giannis Konstantelias Borussia Dortmund Actif 145 / 142 40% 1 08.10.2026 -
Oihan Sancet Eintracht Frankfurt Actif 162 / 160 40% 2 07.10.2026 -
Iliman N'Diaye Everton Actif 160 / 158 40% 1 07.10.2026 -
Alphonso Davies Bayern Munich Actif 159 / 168 40% 2 06.10.2026 -
Kang-In Lee Atlético Madrid Actif 161 / 163 40% 1 06.10.2026 -
Caspar Jander Southampton Actif 124 / 132 40% 1 05.10.2026 -
Sandro Tonali Tottenham Actif 174 / 177 40% 1 14.09.2026 -
Samuel Marques Grasshopper Actif 104 / 112 40% 1 12.09.2026 -
Gabri Veiga FC Augsburg Actif 151 / 150 40% 1 12.09.2026 -
Joey Veerman Borussia Dortmund Actif 150 / 146 40% 1 12.09.2026 -
Dejan Kulusevski Tottenham Actif 167 / 163 40% 1 09.09.2026 -
Patrik Schick Bayer Leverkusen Actif 156 / 161 40% 1 17.08.2026 -
Fisnik Asllani TSG Hoffenheim Actif 133 / 134 40% 1 17.08.2026 -
Soumaïla Diabaté Red Bull Salzburg Actif 104 / 112 40% 1 06.08.2026 -
Fodé Sylla Sion Actif 105 / 116 40% 1 06.08.2026 -